Time;durP1;ratioP1;P1;durP2;ratioP2;P2;SDS_P1;SDS_P2;PMS_P1;PMS_P2;Temp;Humidity;BMP_temperature;BMP_pressure;BME280_temperature;BME280_humidity;BME280_pressure;Samples;Min_cycle;Max_cycle;Signal;HPM_P1;HPM_P2
2021/11/19 00:00:20;;;;;;;54.97;8.02;;;;;;;;;;4986726;28;20077;-71
2021/11/19 00:02:48;;;;;;;52.90;7.78;;;;;;;;;;4978665;28;20130;-71
2021/11/19 00:05:14;;;;;;;58.90;8.68;;;;;;;;;;4981333;28;20126;-71
2021/11/19 00:07:41;;;;;;;37.30;6.63;;;;;;;;;;4985281;28;20549;-71
2021/11/19 00:10:09;;;;;;;46.15;7.05;;;;;;;;;;4981372;28;20302;-71
2021/11/19 00:12:35;;;;;;;52.78;7.35;;;;;;;;;;4988487;28;20078;-71
2021/11/19 00:15:03;;;;;;;58.55;6.78;;;;;;;;;;4982858;28;20089;-71
2021/11/19 00:17:30;;;;;;;53.22;7.88;;;;;;;;;;4983220;28;20082;-71
2021/11/19 00:19:56;;;;;;;43.88;6.05;;;;;;;;;;4984680;28;20069;-71
2021/11/19 00:22:23;;;;;;;47.10;6.07;;;;;;;;;;4987610;28;20135;-71
2021/11/19 00:24:49;;;;;;;47.17;6.28;;;;;;;;;;4981346;28;20055;-71
2021/11/19 00:27:17;;;;;;;43.38;6.03;;;;;;;;;;4981745;28;20093;-71
2021/11/19 00:29:44;;;;;;;40.25;6.30;;;;;;;;;;4981723;28;20128;-71
2021/11/19 00:32:10;;;;;;;42.92;6.53;;;;;;;;;;4981146;28;20492;-72
2021/11/19 00:34:38;;;;;;;50.72;6.85;;;;;;;;;;4983165;28;20042;-71
2021/11/19 00:37:05;;;;;;;53.78;6.43;;;;;;;;;;4981100;28;20105;-72
2021/11/19 00:39:32;;;;;;;56.17;8.60;;;;;;;;;;4979337;28;20480;-72
2021/11/19 00:42:00;;;;;;;39.17;5.90;;;;;;;;;;4980001;28;20591;-71
2021/11/19 00:44:27;;;;;;;45.53;6.65;;;;;;;;;;4985880;28;20494;-71
2021/11/19 00:46:53;;;;;;;45.03;6.07;;;;;;;;;;4981172;28;20137;-71
2021/11/19 00:49:26;;;;;;;39.25;6.03;;;;;;;;;;4980293;28;20086;-71
2021/11/19 00:51:54;;;;;;;49.78;6.95;;;;;;;;;;4982027;28;20629;-71
2021/11/19 00:54:22;;;;;;;39.70;5.88;;;;;;;;;;4980030;28;20053;-72
2021/11/19 00:56:51;;;;;;;54.75;7.85;;;;;;;;;;4984278;28;20146;-71
2021/11/19 00:59:19;;;;;;;45.78;6.20;;;;;;;;;;4989998;28;20137;-71
2021/11/19 01:01:51;;;;;;;48.67;7.20;;;;;;;;;;4983051;28;20089;-71
2021/11/19 01:04:17;;;;;;;46.55;6.20;;;;;;;;;;4983850;28;20047;-71
2021/11/19 01:06:44;;;;;;;49.90;6.13;;;;;;;;;;4984575;28;20305;-71
2021/11/19 01:09:13;;;;;;;46.13;6.88;;;;;;;;;;4981980;28;20061;-71
2021/11/19 01:11:40;;;;;;;43.58;6.53;;;;;;;;;;4980023;28;20141;-71
2021/11/19 01:14:10;;;;;;;48.03;7.43;;;;;;;;;;4980774;28;20156;-72
2021/11/19 01:16:39;;;;;;;57.13;7.25;;;;;;;;;;4986479;28;20106;-71
2021/11/19 01:19:11;;;;;;;67.40;8.52;;;;;;;;;;4986623;28;20096;-72
2021/11/19 01:21:40;;;;;;;46.38;6.43;;;;;;;;;;4984252;28;20066;-72
2021/11/19 01:24:07;;;;;;;53.95;6.93;;;;;;;;;;4987559;28;20157;-71
2021/11/19 01:26:35;;;;;;;59.60;8.82;;;;;;;;;;4983888;28;20137;-72
2021/11/19 01:29:03;;;;;;;58.20;8.13;;;;;;;;;;4984735;28;20077;-71
2021/11/19 01:31:32;;;;;;;47.80;6.75;;;;;;;;;;4983137;28;20141;-72
2021/11/19 01:33:58;;;;;;;62.38;7.78;;;;;;;;;;4986457;28;20166;-72
2021/11/19 01:36:25;;;;;;;57.30;6.53;;;;;;;;;;4984175;28;20078;-72
2021/11/19 01:38:52;;;;;;;58.00;7.30;;;;;;;;;;4984873;28;20133;-72
2021/11/19 01:41:20;;;;;;;55.92;7.38;;;;;;;;;;4988697;28;20078;-72
2021/11/19 01:43:47;;;;;;;61.45;7.70;;;;;;;;;;4992036;28;20133;-72
2021/11/19 01:46:16;;;;;;;53.90;6.93;;;;;;;;;;4985557;28;20074;-72
2021/11/19 01:48:43;;;;;;;49.65;7.50;;;;;;;;;;4984799;28;20422;-72
2021/11/19 01:51:18;;;;;;;61.53;8.68;;;;;;;;;;4984872;28;20119;-72
2021/11/19 01:53:47;;;;;;;55.78;7.75;;;;;;;;;;4981690;28;20129;-72
2021/11/19 01:56:16;;;;;;;50.33;7.32;;;;;;;;;;4974656;28;20169;-72
2021/11/19 01:58:45;;;;;;;66.78;8.98;;;;;;;;;;4980890;28;20125;-72
2021/11/19 02:01:16;;;;;;;54.45;7.70;;;;;;;;;;4982232;28;20081;-72
2021/11/19 02:03:45;;;;;;;68.10;7.85;;;;;;;;;;4981809;28;20127;-72
2021/11/19 02:06:20;;;;;;;60.50;7.13;;;;;;;;;;4982247;28;20047;-72
2021/11/19 02:08:47;;;;;;;61.42;7.47;;;;;;;;;;4984628;28;20080;-72
2021/11/19 02:11:20;;;;;;;54.28;7.82;;;;;;;;;;4981065;28;20050;-72
2021/11/19 02:13:52;;;;;;;68.78;8.43;;;;;;;;;;4983418;28;20144;-72
2021/11/19 02:16:21;;;;;;;74.10;7.93;;;;;;;;;;4980613;28;20049;-72
2021/11/19 02:18:55;;;;;;;65.78;9.35;;;;;;;;;;4979739;28;20142;-72
2021/11/19 02:21:25;;;;;;;70.00;8.98;;;;;;;;;;4981218;28;20124;-72
2021/11/19 02:23:55;;;;;;;74.05;9.20;;;;;;;;;;4981580;28;20060;-72
2021/11/19 02:26:24;;;;;;;65.28;7.70;;;;;;;;;;4979117;28;20133;-72
2021/11/19 02:28:51;;;;;;;60.38;8.80;;;;;;;;;;4981772;28;20124;-72
2021/11/19 02:31:27;;;;;;;66.68;8.18;;;;;;;;;;4980090;28;20074;-72
2021/11/19 02:33:54;;;;;;;62.35;9.00;;;;;;;;;;4981798;28;20142;-72
2021/11/19 02:36:36;;;;;;;70.68;8.55;;;;;;;;;;4985873;28;20482;-72
2021/11/19 02:39:05;;;;;;;74.80;7.68;;;;;;;;;;4981218;28;20065;-72
2021/11/19 02:41:33;;;;;;;62.90;7.70;;;;;;;;;;4984788;28;20165;-72
2021/11/19 02:44:01;;;;;;;62.92;7.75;;;;;;;;;;4984806;28;20149;-72
2021/11/19 02:46:30;;;;;;;55.25;6.97;;;;;;;;;;4981194;28;20143;-72
2021/11/19 02:48:57;;;;;;;54.13;7.13;;;;;;;;;;4983474;28;20569;-72
2021/11/19 02:51:24;;;;;;;53.67;6.75;;;;;;;;;;4984233;28;20137;-72
2021/11/19 02:53:51;;;;;;;58.95;6.10;;;;;;;;;;4985815;28;20135;-72
2021/11/19 02:56:19;;;;;;;37.17;5.70;;;;;;;;;;4981314;28;20138;-72
2021/11/19 02:58:47;;;;;;;41.90;5.07;;;;;;;;;;4985017;28;20129;-72
2021/11/19 03:01:25;;;;;;;35.33;4.10;;;;;;;;;;4976130;28;20141;-72
2021/11/19 03:04:06;;;;;;;36.65;4.70;;;;;;;;;;4983192;28;20077;-72
2021/11/19 03:06:38;;;;;;;28.45;3.80;;;;;;;;;;4982163;28;20047;-72
2021/11/19 03:09:06;;;;;;;35.45;3.78;;;;;;;;;;4981904;28;20487;-72
2021/11/19 03:11:33;;;;;;;21.90;3.08;;;;;;;;;;4982424;28;20133;-72
2021/11/19 03:14:00;;;;;;;22.83;3.30;;;;;;;;;;4983552;28;20121;-72
2021/11/19 03:16:27;;;;;;;23.58;3.20;;;;;;;;;;4984537;28;20214;-72
2021/11/19 03:18:53;;;;;;;22.55;3.75;;;;;;;;;;4982058;28;20185;-72
2021/11/19 03:21:21;;;;;;;31.55;3.70;;;;;;;;;;4981758;28;20486;-72
2021/11/19 03:23:48;;;;;;;29.63;3.58;;;;;;;;;;4986458;28;20455;-72
2021/11/19 03:26:14;;;;;;;27.42;3.55;;;;;;;;;;4979508;28;20082;-72
2021/11/19 03:28:44;;;;;;;24.60;3.20;;;;;;;;;;4982816;28;20147;-72
2021/11/19 03:31:11;;;;;;;22.60;3.67;;;;;;;;;;4985332;28;20062;-72
2021/11/19 03:33:38;;;;;;;;;;;;;;;;;;5002150;28;20070;-72
2021/11/19 03:36:05;;;;;;;26.30;3.72;;;;;;;;;;5000897;28;20008;-72
2021/11/19 03:38:32;;;;;;;;;;;;;;;;;;5002973;28;20894;-72
2021/11/19 03:40:58;;;;;;;23.23;4.10;;;;;;;;;;5002975;28;20584;-72
2021/11/19 03:43:27;;;;;;;23.40;4.13;;;;;;;;;;5004914;28;20046;-72
2021/11/19 03:45:57;;;;;;;28.65;4.35;;;;;;;;;;5002683;28;20092;-72
2021/11/19 03:48:25;;;;;;;35.28;4.38;;;;;;;;;;5003386;28;20045;-72
2021/11/19 03:50:54;;;;;;;32.58;3.60;;;;;;;;;;5001394;28;20553;-72
2021/11/19 03:53:21;;;;;;;27.40;3.78;;;;;;;;;;4997688;28;20057;-72
2021/11/19 03:55:49;;;;;;;36.67;4.55;;;;;;;;;;5001260;28;20050;-72
2021/11/19 03:58:16;;;;;;;;;;;;;;;;;;5004689;28;20497;-72
2021/11/19 04:00:45;;;;;;;31.77;4.57;;;;;;;;;;5001950;28;20028;-72
2021/11/19 04:03:12;;;;;;;40.70;5.20;;;;;;;;;;5000284;28;20065;-72
2021/11/19 04:05:38;;;;;;;39.75;5.32;;;;;;;;;;5002525;28;20044;-72
2021/11/19 04:08:05;;;;;;;38.17;5.47;;;;;;;;;;5001968;28;20144;-72
2021/11/19 04:10:32;;;;;;;41.17;5.60;;;;;;;;;;4999354;28;20494;-72
2021/11/19 04:13:00;;;;;;;37.85;5.22;;;;;;;;;;5002537;28;20097;-72
2021/11/19 04:15:28;;;;;;;35.35;5.45;;;;;;;;;;5003726;28;20030;-72
2021/11/19 04:17:55;;;;;;;43.75;6.03;;;;;;;;;;5001508;28;20049;-72
2021/11/19 04:20:22;;;;;;;52.75;5.38;;;;;;;;;;5008425;28;20132;-72
2021/11/19 04:22:48;;;;;;;54.15;6.32;;;;;;;;;;5004977;28;20085;-72
2021/11/19 04:25:16;;;;;;;44.33;6.47;;;;;;;;;;5007011;28;20132;-72
2021/11/19 04:27:43;;;;;;;32.28;5.22;;;;;;;;;;5007431;28;20380;-72
2021/11/19 04:30:12;;;;;;;42.75;4.82;;;;;;;;;;5000275;28;20501;-72
2021/11/19 04:32:39;;;;;;;36.90;5.88;;;;;;;;;;5001204;28;20101;-72
2021/11/19 04:35:05;;;;;;;45.83;5.63;;;;;;;;;;5002359;28;20088;-72
2021/11/19 04:37:32;;;;;;;52.25;6.15;;;;;;;;;;5000718;28;20332;-72
2021/11/19 04:39:59;;;;;;;41.80;6.10;;;;;;;;;;5001439;28;20132;-72
2021/11/19 04:42:26;;;;;;;46.88;5.82;;;;;;;;;;5002080;28;20077;-72
2021/11/19 04:44:52;;;;;;;45.45;5.75;;;;;;;;;;4999887;28;20149;-72
2021/11/19 04:47:19;;;;;;;45.20;6.03;;;;;;;;;;5001378;28;20494;-72
2021/11/19 04:49:46;;;;;;;39.23;5.43;;;;;;;;;;5000673;28;20545;-72
2021/11/19 04:52:12;;;;;;;50.67;5.80;;;;;;;;;;5001868;28;20080;-72
2021/11/19 04:54:39;;;;;;;55.15;5.68;;;;;;;;;;5003079;28;20073;-72
2021/11/19 04:57:06;;;;;;;34.93;5.93;;;;;;;;;;4998440;28;20163;-72
2021/11/19 04:59:33;;;;;;;44.00;6.37;;;;;;;;;;5003665;28;20081;-72
2021/11/19 05:02:02;;;;;;;43.75;5.60;;;;;;;;;;4999898;28;20089;-72
2021/11/19 05:04:30;;;;;;;45.00;5.57;;;;;;;;;;5004576;28;20077;-72
2021/11/19 05:06:56;;;;;;;46.35;6.60;;;;;;;;;;5002257;28;20141;-72
2021/11/19 05:09:23;;;;;;;48.85;6.22;;;;;;;;;;5000068;28;20146;-72
2021/11/19 05:11:56;;;;;;;48.00;6.43;;;;;;;;;;5004568;28;20129;-72
2021/11/19 05:14:24;;;;;;;36.95;5.80;;;;;;;;;;5002136;28;20058;-72
2021/11/19 05:16:51;;;;;;;45.60;5.68;;;;;;;;;;5003923;28;20140;-72
2021/11/19 05:19:17;;;;;;;37.88;5.47;;;;;;;;;;5000723;28;20458;-72
2021/11/19 05:21:44;;;;;;;47.22;5.68;;;;;;;;;;4999529;28;20046;-72
2021/11/19 05:24:11;;;;;;;41.30;6.65;;;;;;;;;;5000489;28;20556;-70
2021/11/19 05:26:39;;;;;;;42.58;5.72;;;;;;;;;;5002494;28;20180;-70
2021/11/19 05:29:07;;;;;;;44.17;6.45;;;;;;;;;;5000448;28;20077;-70
2021/11/19 05:31:35;;;;;;;45.97;6.18;;;;;;;;;;5002925;28;20148;-70
2021/11/19 05:34:06;;;;;;;54.38;6.00;;;;;;;;;;5003280;28;20046;-70
2021/11/19 05:36:32;;;;;;;50.35;6.63;;;;;;;;;;5001004;28;20168;-70
2021/11/19 05:38:59;;;;;;;49.77;6.00;;;;;;;;;;5001738;28;20077;-70
2021/11/19 05:41:30;;;;;;;43.90;6.03;;;;;;;;;;5001489;28;20525;-71
2021/11/19 05:43:57;;;;;;;44.80;6.28;;;;;;;;;;5001235;28;20498;-70
2021/11/19 05:46:24;;;;;;;55.08;7.93;;;;;;;;;;4999830;28;20084;-71
2021/11/19 05:48:53;;;;;;;45.70;6.40;;;;;;;;;;5000798;28;20100;-70
2021/11/19 05:51:19;;;;;;;;;;;;;;;;;;4999376;28;20042;-70
2021/11/19 05:53:46;;;;;;;53.33;8.00;;;;;;;;;;5002282;28;20008;-70
2021/11/19 05:56:13;;;;;;;50.90;7.55;;;;;;;;;;5001088;28;20078;-70
2021/11/19 05:58:40;;;;;;;41.40;6.32;;;;;;;;;;5002289;28;20088;-70
2021/11/19 06:01:08;;;;;;;38.63;6.47;;;;;;;;;;5001923;28;20176;-70
2021/11/19 06:03:34;;;;;;;49.40;6.70;;;;;;;;;;5003611;28;20193;-70
2021/11/19 06:06:01;;;;;;;42.58;6.20;;;;;;;;;;5000345;28;20052;-70
2021/11/19 06:08:28;;;;;;;43.72;7.55;;;;;;;;;;4999124;28;20106;-70
2021/11/19 06:10:56;;;;;;;45.60;6.78;;;;;;;;;;5000058;28;20137;-70
2021/11/19 06:13:25;;;;;;;46.60;8.32;;;;;;;;;;5000578;28;20129;-70
2021/11/19 06:15:54;;;;;;;49.33;6.60;;;;;;;;;;5002698;28;20518;-70
2021/11/19 06:18:24;;;;;;;55.53;8.18;;;;;;;;;;4999096;28;20137;-70
2021/11/19 06:20:59;;;;;;;55.92;8.20;;;;;;;;;;4999906;28;20070;-70
2021/11/19 06:23:30;;;;;;;56.55;7.80;;;;;;;;;;5000660;28;20049;-70
2021/11/19 06:25:59;;;;;;;42.85;7.00;;;;;;;;;;5000210;28;20074;-70
2021/11/19 06:28:28;;;;;;;61.28;7.38;;;;;;;;;;4998947;28;20048;-71
2021/11/19 06:30:54;;;;;;;56.25;8.65;;;;;;;;;;5000468;28;20050;-70
2021/11/19 06:33:22;;;;;;;56.90;7.53;;;;;;;;;;5000931;28;20118;-70
2021/11/19 06:35:49;;;;;;;50.35;7.18;;;;;;;;;;5001560;28;20086;-70
2021/11/19 06:38:16;;;;;;;59.03;8.30;;;;;;;;;;4999248;28;20064;-70
2021/11/19 06:40:43;;;;;;;64.15;9.70;;;;;;;;;;5000902;28;20128;-70
2021/11/19 06:43:09;;;;;;;53.03;7.93;;;;;;;;;;5000319;28;20073;-70
2021/11/19 06:45:36;;;;;;;58.83;7.03;;;;;;;;;;4999010;28;20053;-70
2021/11/19 06:48:05;;;;;;;54.00;8.32;;;;;;;;;;5000531;28;20516;-71
2021/11/19 06:50:33;;;;;;;59.58;8.05;;;;;;;;;;4999092;28;20053;-70
2021/11/19 06:53:00;;;;;;;47.95;6.72;;;;;;;;;;5000583;28;20129;-70
2021/11/19 06:55:27;;;;;;;43.15;7.70;;;;;;;;;;4999251;28;20641;-70
2021/11/19 06:57:53;;;;;;;57.65;8.18;;;;;;;;;;4998758;28;20152;-70
2021/11/19 07:00:29;;;;;;;45.30;7.47;;;;;;;;;;4999239;28;20437;-70
2021/11/19 07:02:56;;;;;;;48.53;6.68;;;;;;;;;;5000632;28;20468;-70
2021/11/19 07:05:23;;;;;;;48.08;7.53;;;;;;;;;;4985189;28;20133;-70
2021/11/19 07:07:49;;;;;;;45.10;7.88;;;;;;;;;;4999021;28;20183;-70
2021/11/19 07:10:18;;;;;;;35.25;6.22;;;;;;;;;;4999613;28;20132;-70
2021/11/19 07:12:45;;;;;;;55.05;6.95;;;;;;;;;;4998988;28;20098;-70
2021/11/19 07:15:12;;;;;;;46.03;7.32;;;;;;;;;;4999685;28;20178;-71
2021/11/19 07:17:39;;;;;;;55.30;8.38;;;;;;;;;;4999505;28;22046;-70
2021/11/19 07:20:07;;;;;;;51.13;7.50;;;;;;;;;;5000350;28;20566;-70
2021/11/19 07:22:33;;;;;;;50.58;8.98;;;;;;;;;;4999652;28;20069;-70
2021/11/19 07:25:00;;;;;;;52.08;8.48;;;;;;;;;;4999724;28;20129;-70
2021/11/19 07:27:26;;;;;;;55.42;7.68;;;;;;;;;;4999004;28;20046;-70
2021/11/19 07:29:53;;;;;;;59.58;8.63;;;;;;;;;;4986340;28;20128;-70
2021/11/19 07:32:20;;;;;;;50.47;6.43;;;;;;;;;;4998804;28;20077;-70
2021/11/19 07:34:46;;;;;;;63.85;8.18;;;;;;;;;;4997740;28;20626;-70
2021/11/19 07:37:13;;;;;;;49.13;7.47;;;;;;;;;;4998945;28;20492;-70
2021/11/19 07:39:39;;;;;;;55.23;6.73;;;;;;;;;;5001310;28;20124;-70
2021/11/19 07:42:06;;;;;;;50.17;8.45;;;;;;;;;;5000182;28;20045;-70
2021/11/19 07:44:32;;;;;;;62.47;9.15;;;;;;;;;;5000255;28;20089;-70
2021/11/19 07:46:59;;;;;;;45.30;7.07;;;;;;;;;;4998578;28;20140;-70
2021/11/19 07:49:25;;;;;;;57.10;9.48;;;;;;;;;;5004458;28;20061;-70
2021/11/19 07:51:52;;;;;;;56.78;7.15;;;;;;;;;;4998435;28;20380;-70
2021/11/19 07:54:19;;;;;;;57.53;8.85;;;;;;;;;;5000097;28;20498;-70
2021/11/19 07:56:49;;;;;;;50.50;7.80;;;;;;;;;;5001572;28;20050;-70
2021/11/19 07:59:17;;;;;;;55.63;7.75;;;;;;;;;;4992489;28;20145;-70
2021/11/19 08:01:44;;;;;;;55.60;8.00;;;;;;;;;;5001373;28;20046;-70
2021/11/19 08:04:11;;;;;;;55.65;9.57;;;;;;;;;;4997910;28;20054;-70
2021/11/19 08:06:38;;;;;;;43.63;7.03;;;;;;;;;;4999746;28;20046;-70
2021/11/19 08:09:06;;;;;;;62.55;8.68;;;;;;;;;;4998050;28;20490;-70
2021/11/19 08:11:32;;;;;;;58.05;8.50;;;;;;;;;;4997336;28;20145;-70
2021/11/19 08:13:59;;;;;;;53.97;9.07;;;;;;;;;;4998820;28;20631;-70
2021/11/19 08:16:26;;;;;;;53.20;8.02;;;;;;;;;;4998780;28;20049;-70
2021/11/19 08:18:57;;;;;;;52.58;8.68;;;;;;;;;;4998493;28;20493;-70
2021/11/19 08:21:24;;;;;;;59.08;8.90;;;;;;;;;;4998458;28;20506;-70
2021/11/19 08:23:51;;;;;;;;;;;;;;;;;;4997055;28;20081;-70
2021/11/19 08:26:25;;;;;;;60.50;7.90;;;;;;;;;;4997748;28;19921;-70
2021/11/19 08:28:52;;;;;;;71.05;9.38;;;;;;;;;;4999344;28;20120;-70
2021/11/19 08:31:21;;;;;;;63.25;9.13;;;;;;;;;;4991219;28;20154;-70
2021/11/19 08:33:48;;;;;;;63.38;11.48;;;;;;;;;;4980164;28;20046;-70
2021/11/19 08:36:16;;;;;;;58.95;9.02;;;;;;;;;;4978409;28;20141;-70
2021/11/19 08:38:44;;;;;;;56.78;8.20;;;;;;;;;;4970047;28;20584;-70
2021/11/19 08:41:12;;;;;;;57.40;9.57;;;;;;;;;;4978966;28;20209;-70
2021/11/19 08:43:40;;;;;;;58.83;8.73;;;;;;;;;;4979542;28;20136;-70
2021/11/19 08:46:08;;;;;;;55.17;8.88;;;;;;;;;;4980535;28;20089;-70
2021/11/19 08:48:35;;;;;;;64.97;8.45;;;;;;;;;;4979013;28;20047;-70
2021/11/19 08:51:11;;;;;;;45.40;7.25;;;;;;;;;;4978798;28;20162;-70
2021/11/19 08:53:38;;;;;;;52.33;7.90;;;;;;;;;;4979358;28;20082;-70
2021/11/19 08:56:05;;;;;;;47.42;7.15;;;;;;;;;;4977306;28;20138;-70
2021/11/19 08:58:34;;;;;;;43.75;6.50;;;;;;;;;;4978088;28;20054;-70
2021/11/19 09:01:01;;;;;;;44.67;7.63;;;;;;;;;;4980235;28;20086;-70
2021/11/19 09:03:28;;;;;;;43.90;7.75;;;;;;;;;;4978679;28;20308;-70
2021/11/19 09:05:55;;;;;;;43.67;6.90;;;;;;;;;;4977532;28;20074;-70
2021/11/19 09:08:23;;;;;;;38.90;7.40;;;;;;;;;;4977521;28;20177;-70
2021/11/19 09:10:52;;;;;;;42.90;6.75;;;;;;;;;;4979403;28;20049;-70
2021/11/19 09:13:19;;;;;;;43.88;7.28;;;;;;;;;;4982051;28;20054;-70
2021/11/19 09:15:45;;;;;;;48.75;7.25;;;;;;;;;;4979447;28;20086;-70
2021/11/19 09:18:31;;;;;;;52.38;7.57;;;;;;;;;;4981590;28;20133;-70
2021/11/19 09:21:25;;;;;;;52.45;8.13;;;;;;;;;;4982819;28;20135;-70
2021/11/19 09:23:58;;;;;;;46.88;7.63;;;;;;;;;;4974486;28;20082;-70
2021/11/19 09:26:50;;;;;;;43.33;6.97;;;;;;;;;;4973882;28;20148;-70
2021/11/19 09:29:37;;;;;;;46.67;9.30;;;;;;;;;;4973358;28;20057;-70
2021/11/19 09:32:04;;;;;;;40.90;6.72;;;;;;;;;;4977653;28;20081;-70
2021/11/19 09:34:36;;;;;;;44.40;6.80;;;;;;;;;;4977474;28;20126;-70
2021/11/19 09:37:04;;;;;;;36.20;6.22;;;;;;;;;;4983032;28;20410;-70
2021/11/19 09:39:30;;;;;;;35.63;6.82;;;;;;;;;;4982853;28;20085;-70
2021/11/19 09:41:57;;;;;;;46.53;8.18;;;;;;;;;;4983453;28;20046;-70
2021/11/19 09:44:39;;;;;;;36.10;6.65;;;;;;;;;;4981784;28;20142;-70
2021/11/19 09:47:28;;;;;;;39.22;6.78;;;;;;;;;;4966877;28;20096;-70
2021/11/19 09:49:55;;;;;;;;;;;;;;;;;;4979197;28;20134;-70
2021/11/19 09:52:36;;;;;;;38.15;6.20;;;;;;;;;;4976755;28;19965;-70
2021/11/19 09:55:14;;;;;;;41.67;4.97;;;;;;;;;;4979653;28;20344;-70
2021/11/19 09:57:47;;;;;;;41.13;6.50;;;;;;;;;;4980792;28;20046;-70
2021/11/19 10:00:13;;;;;;;31.60;5.00;;;;;;;;;;4972779;28;20046;-70
2021/11/19 10:02:49;;;;;;;37.08;4.85;;;;;;;;;;4982182;28;20073;-70
2021/11/19 10:05:28;;;;;;;32.42;6.35;;;;;;;;;;4981143;28;20126;-70
2021/11/19 10:07:57;;;;;;;38.03;5.93;;;;;;;;;;4982612;28;20100;-70
2021/11/19 10:10:24;;;;;;;32.58;6.10;;;;;;;;;;4980274;28;20121;-70
2021/11/19 10:12:56;;;;;;;35.30;6.25;;;;;;;;;;4980711;28;20074;-70
2021/11/19 10:15:24;;;;;;;34.35;5.72;;;;;;;;;;4981777;28;20140;-70
2021/11/19 10:18:20;;;;;;;35.42;5.63;;;;;;;;;;4979969;28;20138;-70
2021/11/19 10:20:52;;;;;;;37.53;6.95;;;;;;;;;;4911054;28;20139;-70
2021/11/19 10:23:26;;;;;;;30.15;5.10;;;;;;;;;;4980051;28;20043;-70
2021/11/19 10:25:55;;;;;;;40.78;6.05;;;;;;;;;;4979659;28;20069;-70
2021/11/19 10:28:42;;;;;;;36.85;6.50;;;;;;;;;;4982479;28;20092;-71
2021/11/19 10:31:11;;;;;;;36.63;5.47;;;;;;;;;;4979677;28;20491;-70
2021/11/19 10:33:43;;;;;;;35.17;5.03;;;;;;;;;;4979883;28;20494;-70
2021/11/19 10:36:25;;;;;;;39.70;6.25;;;;;;;;;;4980738;28;20058;-70
2021/11/19 10:39:11;;;;;;;32.65;5.05;;;;;;;;;;4980984;28;20074;-70
2021/11/19 10:41:37;;;;;;;37.03;6.13;;;;;;;;;;4980892;28;20442;-70
2021/11/19 10:44:22;;;;;;;35.88;6.15;;;;;;;;;;4979754;28;20050;-71
2021/11/19 10:47:10;;;;;;;34.42;5.65;;;;;;;;;;4978330;28;20065;-70
2021/11/19 10:49:56;;;;;;;34.90;6.32;;;;;;;;;;4980024;28;20043;-71
2021/11/19 10:52:53;;;;;;;30.10;5.32;;;;;;;;;;4982187;28;20089;-70
2021/11/19 10:55:29;;;;;;;33.10;6.15;;;;;;;;;;4978971;28;20109;-70
2021/11/19 10:58:05;;;;;;;31.88;5.88;;;;;;;;;;4980535;28;20132;-70
2021/11/19 11:00:56;;;;;;;24.67;4.75;;;;;;;;;;4981666;28;20046;-70
2021/11/19 11:03:27;;;;;;;21.23;3.97;;;;;;;;;;4960192;28;20793;-71
2021/11/19 11:05:56;;;;;;;37.40;5.47;;;;;;;;;;4981736;28;20511;-70
2021/11/19 11:08:33;;;;;;;28.52;5.07;;;;;;;;;;4981242;28;20141;-70
2021/11/19 11:11:04;;;;;;;35.17;5.72;;;;;;;;;;4979604;28;20104;-70
2021/11/19 11:13:57;;;;;;;26.58;5.60;;;;;;;;;;4979308;28;20081;-71
2021/11/19 11:16:27;;;;;;;37.13;6.03;;;;;;;;;;4977413;28;20557;-71
2021/11/19 11:18:58;;;;;;;23.67;3.90;;;;;;;;;;4978730;28;20146;-70
2021/11/19 11:21:27;;;;;;;32.22;5.28;;;;;;;;;;4979472;28;20050;-70
2021/11/19 11:23:57;;;;;;;41.00;6.63;;;;;;;;;;4979613;28;20077;-70
2021/11/19 11:26:36;;;;;;;25.15;5.32;;;;;;;;;;4979782;28;20134;-70
2021/11/19 11:29:23;;;;;;;29.83;5.32;;;;;;;;;;4978231;28;20600;-70
2021/11/19 11:31:56;;;;;;;38.75;6.13;;;;;;;;;;4979541;28;20137;-70
2021/11/19 11:34:24;;;;;;;38.65;6.63;;;;;;;;;;4974210;28;20054;-70
2021/11/19 11:36:56;;;;;;;33.38;6.40;;;;;;;;;;4979815;28;20092;-71
2021/11/19 11:39:34;;;;;;;25.85;4.72;;;;;;;;;;4978421;28;20145;-71
2021/11/19 11:42:03;;;;;;;43.78;7.05;;;;;;;;;;4981057;28;20098;-71
2021/11/19 11:44:45;;;;;;;32.97;5.85;;;;;;;;;;4980861;28;20136;-71
2021/11/19 11:47:30;;;;;;;40.30;5.82;;;;;;;;;;4979697;28;20133;-70
2021/11/19 11:49:59;;;;;;;37.88;5.95;;;;;;;;;;4980327;28;20485;-71
2021/11/19 11:52:29;;;;;;;37.83;5.55;;;;;;;;;;4980190;28;20045;-71
2021/11/19 11:54:58;;;;;;;38.97;5.78;;;;;;;;;;4979576;28;20077;-70
2021/11/19 11:57:28;;;;;;;45.13;6.90;;;;;;;;;;4977598;28;20054;-70
2021/11/19 11:59:54;;;;;;;43.72;7.00;;;;;;;;;;4978604;28;20078;-70
2021/11/19 12:02:37;;;;;;;43.90;6.85;;;;;;;;;;4979662;28;20388;-70
2021/11/19 12:05:15;;;;;;;43.58;6.47;;;;;;;;;;4978109;28;20150;-70
2021/11/19 12:07:41;;;;;;;38.65;6.85;;;;;;;;;;4979905;28;20049;-70
2021/11/19 12:10:26;;;;;;;40.07;6.50;;;;;;;;;;4983976;28;20078;-70
2021/11/19 12:13:16;;;;;;;44.25;6.55;;;;;;;;;;4978134;28;20056;-71
2021/11/19 12:15:51;;;;;;;38.65;7.18;;;;;;;;;;4977960;28;20137;-70
2021/11/19 12:18:32;;;;;;;40.15;6.40;;;;;;;;;;4979717;28;20100;-70
2021/11/19 12:21:07;;;;;;;46.70;6.95;;;;;;;;;;4979622;28;20447;-70
2021/11/19 12:23:37;;;;;;;37.20;6.68;;;;;;;;;;4979688;28;20046;-70
2021/11/19 12:26:16;;;;;;;50.38;7.75;;;;;;;;;;4976742;28;20133;-70
2021/11/19 12:28:44;;;;;;;38.28;6.65;;;;;;;;;;4977931;28;20129;-70
2021/11/19 12:31:34;;;;;;;30.27;5.28;;;;;;;;;;4978100;28;20121;-71
2021/11/19 12:34:26;;;;;;;42.25;6.65;;;;;;;;;;4950952;28;20078;-70
2021/11/19 12:37:00;;;;;;;40.03;6.30;;;;;;;;;;4976606;28;20082;-70
2021/11/19 12:39:27;;;;;;;51.42;6.28;;;;;;;;;;4978142;28;20532;-70
2021/11/19 12:41:58;;;;;;;44.80;7.30;;;;;;;;;;4977957;28;20568;-70
2021/11/19 12:44:49;;;;;;;50.42;6.95;;;;;;;;;;4980189;28;20101;-70
2021/11/19 12:47:25;;;;;;;49.63;7.45;;;;;;;;;;4969095;28;20177;-70
2021/11/19 12:50:10;;;;;;;43.65;8.00;;;;;;;;;;4982099;28;20558;-71
2021/11/19 12:52:43;;;;;;;43.42;6.93;;;;;;;;;;4974954;28;20082;-70
2021/11/19 12:55:19;;;;;;;51.20;9.45;;;;;;;;;;4980602;28;20101;-70
2021/11/19 12:57:45;;;;;;;42.72;5.43;;;;;;;;;;4980150;28;20469;-70
2021/11/19 13:00:12;;;;;;;35.65;6.82;;;;;;;;;;4978329;28;20046;-70
2021/11/19 13:02:46;;;;;;;48.25;7.82;;;;;;;;;;4978911;28;20652;-70
2021/11/19 13:05:15;;;;;;;53.25;7.78;;;;;;;;;;4979374;28;20082;-70
2021/11/19 13:07:46;;;;;;;43.13;8.23;;;;;;;;;;4978184;28;20050;-70
2021/11/19 13:10:15;;;;;;;40.40;6.72;;;;;;;;;;4980004;28;20571;-70
2021/11/19 13:12:57;;;;;;;39.70;6.35;;;;;;;;;;4982067;28;20744;-70
2021/11/19 13:15:32;;;;;;;39.80;6.80;;;;;;;;;;4982440;28;20149;-70
2021/11/19 13:17:59;;;;;;;41.65;5.22;;;;;;;;;;4983581;28;20133;-70
2021/11/19 13:20:48;;;;;;;50.97;6.20;;;;;;;;;;4982275;28;20137;-70
2021/11/19 13:23:37;;;;;;;52.80;7.03;;;;;;;;;;4981967;28;20627;-70
2021/11/19 13:26:04;;;;;;;;;;;;;;;;;;4985780;28;20054;-70
2021/11/19 13:28:49;;;;;;;50.70;7.13;;;;;;;;;;4988344;28;19960;-70
2021/11/19 13:31:36;;;;;;;52.42;9.27;;;;;;;;;;4984918;28;20086;-70
2021/11/19 13:34:03;;;;;;;52.92;8.40;;;;;;;;;;4982047;28;20076;-70
2021/11/19 13:36:48;;;;;;;57.97;8.23;;;;;;;;;;4975809;28;20422;-70
2021/11/19 13:39:23;;;;;;;44.00;6.82;;;;;;;;;;4984166;28;20140;-70
2021/11/19 13:41:59;;;;;;;46.63;7.22;;;;;;;;;;4982952;28;20050;-70
2021/11/19 13:44:47;;;;;;;58.53;8.02;;;;;;;;;;4981136;28;20050;-70
2021/11/19 13:47:29;;;;;;;57.90;8.07;;;;;;;;;;4981561;28;20058;-70
2021/11/19 13:50:07;;;;;;;42.97;8.27;;;;;;;;;;4981492;28;20086;-70
2021/11/19 13:52:45;;;;;;;43.22;8.07;;;;;;;;;;4982370;28;20428;-70
2021/11/19 13:55:18;;;;;;;43.78;7.10;;;;;;;;;;4986354;28;20141;-70
2021/11/19 13:58:10;;;;;;;50.78;8.05;;;;;;;;;;4980557;28;20058;-70
2021/11/19 14:00:52;;;;;;;39.08;6.03;;;;;;;;;;4982318;28;20570;-70
2021/11/19 14:03:22;;;;;;;40.25;7.95;;;;;;;;;;4982895;28;20050;-70
2021/11/19 14:05:52;;;;;;;51.00;7.82;;;;;;;;;;4982232;28;20074;-69
2021/11/19 14:08:19;;;;;;;55.65;9.35;;;;;;;;;;4980129;28;20078;-70
2021/11/19 14:10:54;;;;;;;46.33;7.95;;;;;;;;;;4981987;28;20141;-70
2021/11/19 14:13:31;;;;;;;60.42;9.30;;;;;;;;;;4983028;28;20062;-69
2021/11/19 14:16:01;;;;;;;60.25;9.80;;;;;;;;;;4984210;28;20132;-70
2021/11/19 14:18:34;;;;;;;53.28;9.27;;;;;;;;;;4984336;28;20439;-70
2021/11/19 14:24:03;;;;;;;62.67;9.18;;;;;;;;;;4982942;28;20054;-70
2021/11/19 14:26:32;;;;;;;72.75;10.65;;;;;;;;;;4985614;28;20086;-69
2021/11/19 14:29:00;;;;;;;60.38;9.90;;;;;;;;;;4979822;28;20129;-69
2021/11/19 14:31:28;;;;;;;51.35;9.25;;;;;;;;;;4978515;28;20051;-70
2021/11/19 14:33:54;;;;;;;;;;;;;;;;;;4981152;28;20053;-70
2021/11/19 14:36:24;;;;;;;65.18;10.75;;;;;;;;;;4980037;28;20032;-69
2021/11/19 14:38:53;;;;;;;74.75;11.10;;;;;;;;;;4980290;28;20074;-69
2021/11/19 14:41:25;;;;;;;65.43;9.55;;;;;;;;;;4982143;28;20069;-69
2021/11/19 14:43:59;;;;;;;48.97;8.57;;;;;;;;;;4981286;28;20097;-69
2021/11/19 14:46:31;;;;;;;67.40;11.02;;;;;;;;;;4980035;28;20104;-69
2021/11/19 14:49:01;;;;;;;60.10;10.13;;;;;;;;;;4979812;28;20188;-70
2021/11/19 14:51:34;;;;;;;64.68;12.95;;;;;;;;;;4981613;28;20134;-69
2021/11/19 14:54:03;;;;;;;56.17;8.73;;;;;;;;;;4980859;28;20092;-69
2021/11/19 14:56:37;;;;;;;59.15;10.32;;;;;;;;;;4981384;28;20050;-69